sensor_id;sensor_type;location;lat;lon;timestamp;temperature;humidity
36450;DHT22;22475;51.390;7.180;2023-02-01T00:00:11;10.30;91.20
36450;DHT22;22475;51.390;7.180;2023-02-01T00:02:38;10.30;91.20
36450;DHT22;22475;51.390;7.180;2023-02-01T00:05:07;10.30;91.20
36450;DHT22;22475;51.390;7.180;2023-02-01T00:07:34;10.30;91.20
36450;DHT22;22475;51.390;7.180;2023-02-01T00:10:01;10.30;91.20
36450;DHT22;22475;51.390;7.180;2023-02-01T00:12:28;10.30;91.10
36450;DHT22;22475;51.390;7.180;2023-02-01T00:14:57;10.30;91.10
36450;DHT22;22475;51.390;7.180;2023-02-01T00:17:24;10.30;91.10
36450;DHT22;22475;51.390;7.180;2023-02-01T00:19:51;10.40;91.50
36450;DHT22;22475;51.390;7.180;2023-02-01T00:22:18;10.30;91.10
36450;DHT22;22475;51.390;7.180;2023-02-01T00:24:44;10.40;91.00
36450;DHT22;22475;51.390;7.180;2023-02-01T00:27:11;10.30;91.00
36450;DHT22;22475;51.390;7.180;2023-02-01T00:29:43;10.30;90.90
36450;DHT22;22475;51.390;7.180;2023-02-01T00:32:11;10.30;90.80
36450;DHT22;22475;51.390;7.180;2023-02-01T00:34:38;10.30;90.80
36450;DHT22;22475;51.390;7.180;2023-02-01T00:37:05;10.30;90.80
36450;DHT22;22475;51.390;7.180;2023-02-01T00:39:33;10.40;90.70
36450;DHT22;22475;51.390;7.180;2023-02-01T00:42:00;10.30;90.70
36450;DHT22;22475;51.390;7.180;2023-02-01T00:44:27;10.30;90.60
36450;DHT22;22475;51.390;7.180;2023-02-01T00:46:58;10.30;90.60
36450;DHT22;22475;51.390;7.180;2023-02-01T00:49:27;10.30;90.90
36450;DHT22;22475;51.390;7.180;2023-02-01T00:51:54;10.30;90.50
36450;DHT22;22475;51.390;7.180;2023-02-01T00:54:20;10.30;90.50
36450;DHT22;22475;51.390;7.180;2023-02-01T00:56:48;10.30;90.50
36450;DHT22;22475;51.390;7.180;2023-02-01T00:59:14;10.30;90.50
36450;DHT22;22475;51.390;7.180;2023-02-01T01:01:41;10.30;90.50
36450;DHT22;22475;51.390;7.180;2023-02-01T01:04:08;10.30;90.40
36450;DHT22;22475;51.390;7.180;2023-02-01T01:06:36;10.30;90.40
36450;DHT22;22475;51.390;7.180;2023-02-01T01:09:04;10.30;90.40
36450;DHT22;22475;51.390;7.180;2023-02-01T01:11:33;10.30;90.40
36450;DHT22;22475;51.390;7.180;2023-02-01T01:14:00;10.30;90.40
36450;DHT22;22475;51.390;7.180;2023-02-01T01:16:29;10.30;90.30
36450;DHT22;22475;51.390;7.180;2023-02-01T01:18:57;10.30;90.30
36450;DHT22;22475;51.390;7.180;2023-02-01T01:21:24;10.30;90.40
36450;DHT22;22475;51.390;7.180;2023-02-01T01:23:52;10.30;90.40
36450;DHT22;22475;51.390;7.180;2023-02-01T01:26:21;10.30;90.40
36450;DHT22;22475;51.390;7.180;2023-02-01T01:28:49;10.30;90.40
36450;DHT22;22475;51.390;7.180;2023-02-01T01:31:18;10.30;90.40
36450;DHT22;22475;51.390;7.180;2023-02-01T01:33:47;10.30;90.40
36450;DHT22;22475;51.390;7.180;2023-02-01T01:36:14;10.40;90.50
36450;DHT22;22475;51.390;7.180;2023-02-01T01:38:41;10.30;90.40
36450;DHT22;22475;51.390;7.180;2023-02-01T01:41:14;10.40;90.50
36450;DHT22;22475;51.390;7.180;2023-02-01T01:43:56;10.40;90.50
36450;DHT22;22475;51.390;7.180;2023-02-01T01:46:24;10.40;90.50
36450;DHT22;22475;51.390;7.180;2023-02-01T01:48:56;10.40;90.50
36450;DHT22;22475;51.390;7.180;2023-02-01T01:51:28;10.40;90.50
36450;DHT22;22475;51.390;7.180;2023-02-01T01:54:00;10.40;90.50
36450;DHT22;22475;51.390;7.180;2023-02-01T01:56:29;10.30;90.50
36450;DHT22;22475;51.390;7.180;2023-02-01T01:58:57;10.40;90.50
36450;DHT22;22475;51.390;7.180;2023-02-01T02:01:24;10.40;90.50
36450;DHT22;22475;51.390;7.180;2023-02-01T02:03:52;10.40;90.50
36450;DHT22;22475;51.390;7.180;2023-02-01T02:06:28;10.40;90.50
36450;DHT22;22475;51.390;7.180;2023-02-01T02:08:56;10.40;90.50
36450;DHT22;22475;51.390;7.180;2023-02-01T02:11:23;10.40;90.50
36450;DHT22;22475;51.390;7.180;2023-02-01T02:13:53;10.40;90.50
36450;DHT22;22475;51.390;7.180;2023-02-01T02:16:39;10.40;90.50
36450;DHT22;22475;51.390;7.180;2023-02-01T02:19:23;10.40;90.40
36450;DHT22;22475;51.390;7.180;2023-02-01T02:22:12;10.40;90.40
36450;DHT22;22475;51.390;7.180;2023-02-01T02:27:52;10.40;90.30
36450;DHT22;22475;51.390;7.180;2023-02-01T02:30:40;10.40;90.30
36450;DHT22;22475;51.390;7.180;2023-02-01T02:36:31;10.40;90.20
36450;DHT22;22475;51.390;7.180;2023-02-01T02:39:06;10.40;90.20
36450;DHT22;22475;51.390;7.180;2023-02-01T02:41:42;10.30;90.20
36450;DHT22;22475;51.390;7.180;2023-02-01T02:44:33;10.40;90.20
36450;DHT22;22475;51.390;7.180;2023-02-01T02:47:24;10.40;90.20
36450;DHT22;22475;51.390;7.180;2023-02-01T02:49:58;10.40;90.20
36450;DHT22;22475;51.390;7.180;2023-02-01T02:52:51;10.40;90.20
36450;DHT22;22475;51.390;7.180;2023-02-01T02:55:39;10.40;90.20
36450;DHT22;22475;51.390;7.180;2023-02-01T02:58:07;10.40;90.20
36450;DHT22;22475;51.390;7.180;2023-02-01T03:00:53;10.40;90.20
36450;DHT22;22475;51.390;7.180;2023-02-01T03:03:39;10.40;90.10
36450;DHT22;22475;51.390;7.180;2023-02-01T03:06:24;10.40;90.10
36450;DHT22;22475;51.390;7.180;2023-02-01T03:08:54;10.40;90.10
36450;DHT22;22475;51.390;7.180;2023-02-01T03:11:23;10.40;90.10
36450;DHT22;22475;51.390;7.180;2023-02-01T03:14:12;10.40;90.00
36450;DHT22;22475;51.390;7.180;2023-02-01T03:16:42;10.40;90.00
36450;DHT22;22475;51.390;7.180;2023-02-01T03:19:11;10.40;90.00
36450;DHT22;22475;51.390;7.180;2023-02-01T03:21:43;10.40;90.00
36450;DHT22;22475;51.390;7.180;2023-02-01T03:24:15;10.40;89.90
36450;DHT22;22475;51.390;7.180;2023-02-01T03:26:45;10.40;90.00
36450;DHT22;22475;51.390;7.180;2023-02-01T03:29:19;10.40;90.00
36450;DHT22;22475;51.390;7.180;2023-02-01T03:31:49;10.40;90.00
36450;DHT22;22475;51.390;7.180;2023-02-01T03:34:16;10.40;90.00
36450;DHT22;22475;51.390;7.180;2023-02-01T03:36:48;10.40;90.00
36450;DHT22;22475;51.390;7.180;2023-02-01T03:39:20;10.40;89.90
36450;DHT22;22475;51.390;7.180;2023-02-01T03:41:51;10.30;89.70
36450;DHT22;22475;51.390;7.180;2023-02-01T03:44:21;10.30;89.60
36450;DHT22;22475;51.390;7.180;2023-02-01T03:46:52;10.30;89.50
36450;DHT22;22475;51.390;7.180;2023-02-01T03:49:22;10.40;89.60
36450;DHT22;22475;51.390;7.180;2023-02-01T03:51:51;10.30;89.50
36450;DHT22;22475;51.390;7.180;2023-02-01T03:54:20;10.30;89.50
36450;DHT22;22475;51.390;7.180;2023-02-01T03:56:48;10.30;89.40
36450;DHT22;22475;51.390;7.180;2023-02-01T03:59:17;10.30;89.50
36450;DHT22;22475;51.390;7.180;2023-02-01T04:01:43;10.30;89.60
36450;DHT22;22475;51.390;7.180;2023-02-01T04:04:11;10.30;89.70
36450;DHT22;22475;51.390;7.180;2023-02-01T04:06:45;10.30;89.80
36450;DHT22;22475;51.390;7.180;2023-02-01T04:09:11;10.40;89.80
36450;DHT22;22475;51.390;7.180;2023-02-01T04:11:40;10.30;89.80
36450;DHT22;22475;51.390;7.180;2023-02-01T04:14:06;10.40;89.90
36450;DHT22;22475;51.390;7.180;2023-02-01T04:16:33;10.40;89.90
36450;DHT22;22475;51.390;7.180;2023-02-01T04:19:00;10.40;89.80
36450;DHT22;22475;51.390;7.180;2023-02-01T04:21:28;10.40;89.80
36450;DHT22;22475;51.390;7.180;2023-02-01T04:23:55;10.40;89.80
36450;DHT22;22475;51.390;7.180;2023-02-01T04:26:21;10.40;89.80
36450;DHT22;22475;51.390;7.180;2023-02-01T04:28:50;10.40;89.70
36450;DHT22;22475;51.390;7.180;2023-02-01T04:31:18;10.40;89.60
36450;DHT22;22475;51.390;7.180;2023-02-01T04:33:50;10.40;89.50
36450;DHT22;22475;51.390;7.180;2023-02-01T04:36:17;10.40;89.50
36450;DHT22;22475;51.390;7.180;2023-02-01T04:38:45;10.40;89.50
36450;DHT22;22475;51.390;7.180;2023-02-01T04:41:12;10.40;90.00
36450;DHT22;22475;51.390;7.180;2023-02-01T04:43:39;10.40;89.50
36450;DHT22;22475;51.390;7.180;2023-02-01T04:46:07;10.40;89.50
36450;DHT22;22475;51.390;7.180;2023-02-01T04:48:34;10.40;89.50
36450;DHT22;22475;51.390;7.180;2023-02-01T04:51:00;10.40;89.50
36450;DHT22;22475;51.390;7.180;2023-02-01T04:53:27;10.40;89.50
36450;DHT22;22475;51.390;7.180;2023-02-01T04:55:55;10.40;89.50
36450;DHT22;22475;51.390;7.180;2023-02-01T04:58:22;10.40;89.60
36450;DHT22;22475;51.390;7.180;2023-02-01T05:00:49;10.40;89.60
36450;DHT22;22475;51.390;7.180;2023-02-01T05:03:18;10.40;89.60
36450;DHT22;22475;51.390;7.180;2023-02-01T05:05:47;10.40;89.50
36450;DHT22;22475;51.390;7.180;2023-02-01T05:08:13;10.40;89.40
36450;DHT22;22475;51.390;7.180;2023-02-01T05:10:40;10.40;89.40
36450;DHT22;22475;51.390;7.180;2023-02-01T05:13:08;10.40;89.40
36450;DHT22;22475;51.390;7.180;2023-02-01T05:15:52;10.40;89.50
36450;DHT22;22475;51.390;7.180;2023-02-01T05:18:20;10.40;89.50
36450;DHT22;22475;51.390;7.180;2023-02-01T05:20:47;10.40;89.50
36450;DHT22;22475;51.390;7.180;2023-02-01T05:23:14;10.40;89.50
36450;DHT22;22475;51.390;7.180;2023-02-01T05:25:40;10.30;89.40
36450;DHT22;22475;51.390;7.180;2023-02-01T05:28:07;10.40;89.40
36450;DHT22;22475;51.390;7.180;2023-02-01T05:30:34;10.40;89.50
36450;DHT22;22475;51.390;7.180;2023-02-01T05:33:01;10.30;89.40
36450;DHT22;22475;51.390;7.180;2023-02-01T05:35:29;10.30;89.30
36450;DHT22;22475;51.390;7.180;2023-02-01T05:37:56;10.30;89.40
36450;DHT22;22475;51.390;7.180;2023-02-01T05:40:23;10.30;89.40
36450;DHT22;22475;51.390;7.180;2023-02-01T05:42:50;10.30;89.40
36450;DHT22;22475;51.390;7.180;2023-02-01T05:45:16;10.30;89.50
36450;DHT22;22475;51.390;7.180;2023-02-01T05:47:43;10.30;89.40
36450;DHT22;22475;51.390;7.180;2023-02-01T05:50:10;10.30;89.40
36450;DHT22;22475;51.390;7.180;2023-02-01T05:52:38;10.30;89.30
36450;DHT22;22475;51.390;7.180;2023-02-01T05:55:05;10.30;89.40
36450;DHT22;22475;51.390;7.180;2023-02-01T05:57:32;10.30;89.50
36450;DHT22;22475;51.390;7.180;2023-02-01T05:59:59;10.30;89.40
36450;DHT22;22475;51.390;7.180;2023-02-01T06:02:26;10.30;89.40
36450;DHT22;22475;51.390;7.180;2023-02-01T06:04:52;10.30;89.50
36450;DHT22;22475;51.390;7.180;2023-02-01T06:07:19;10.30;89.50
36450;DHT22;22475;51.390;7.180;2023-02-01T06:09:47;10.30;89.40
36450;DHT22;22475;51.390;7.180;2023-02-01T06:12:14;10.30;90.00
36450;DHT22;22475;51.390;7.180;2023-02-01T06:14:41;10.30;89.40
36450;DHT22;22475;51.390;7.180;2023-02-01T06:17:08;10.20;89.30
36450;DHT22;22475;51.390;7.180;2023-02-01T06:19:35;10.20;89.30
36450;DHT22;22475;51.390;7.180;2023-02-01T06:22:02;10.30;89.50
36450;DHT22;22475;51.390;7.180;2023-02-01T06:24:31;10.30;89.50
36450;DHT22;22475;51.390;7.180;2023-02-01T06:26:59;10.30;89.60
36450;DHT22;22475;51.390;7.180;2023-02-01T06:29:26;10.30;89.50
36450;DHT22;22475;51.390;7.180;2023-02-01T06:31:53;10.30;89.50
36450;DHT22;22475;51.390;7.180;2023-02-01T06:34:20;10.30;89.40
36450;DHT22;22475;51.390;7.180;2023-02-01T06:36:49;10.30;89.40
36450;DHT22;22475;51.390;7.180;2023-02-01T06:39:16;10.20;89.30
36450;DHT22;22475;51.390;7.180;2023-02-01T06:41:46;10.20;89.30
36450;DHT22;22475;51.390;7.180;2023-02-01T06:44:16;10.30;89.50
36450;DHT22;22475;51.390;7.180;2023-02-01T06:46:43;10.30;89.50
36450;DHT22;22475;51.390;7.180;2023-02-01T06:49:10;10.30;89.60
36450;DHT22;22475;51.390;7.180;2023-02-01T06:51:38;10.30;89.70
36450;DHT22;22475;51.390;7.180;2023-02-01T06:54:06;10.20;89.70
36450;DHT22;22475;51.390;7.180;2023-02-01T06:56:33;10.30;89.80
36450;DHT22;22475;51.390;7.180;2023-02-01T06:59:03;10.30;89.80
36450;DHT22;22475;51.390;7.180;2023-02-01T07:01:31;10.30;89.80
36450;DHT22;22475;51.390;7.180;2023-02-01T07:03:58;10.30;89.70
36450;DHT22;22475;51.390;7.180;2023-02-01T07:06:25;10.30;89.70
36450;DHT22;22475;51.390;7.180;2023-02-01T07:08:52;10.30;89.70
36450;DHT22;22475;51.390;7.180;2023-02-01T07:11:21;10.30;89.80
36450;DHT22;22475;51.390;7.180;2023-02-01T07:13:48;10.30;89.80
36450;DHT22;22475;51.390;7.180;2023-02-01T07:16:17;10.30;89.80
36450;DHT22;22475;51.390;7.180;2023-02-01T07:18:46;10.30;89.80
36450;DHT22;22475;51.390;7.180;2023-02-01T07:21:13;10.30;89.80
36450;DHT22;22475;51.390;7.180;2023-02-01T07:23:40;10.30;89.80
36450;DHT22;22475;51.390;7.180;2023-02-01T07:26:09;10.30;89.80
36450;DHT22;22475;51.390;7.180;2023-02-01T07:28:37;10.30;89.80
36450;DHT22;22475;51.390;7.180;2023-02-01T07:31:05;10.40;89.80
36450;DHT22;22475;51.390;7.180;2023-02-01T07:33:33;10.40;89.70
36450;DHT22;22475;51.390;7.180;2023-02-01T07:36:03;10.30;89.60
36450;DHT22;22475;51.390;7.180;2023-02-01T07:38:30;10.30;89.70
36450;DHT22;22475;51.390;7.180;2023-02-01T07:40:58;10.40;89.70
36450;DHT22;22475;51.390;7.180;2023-02-01T07:43:25;10.40;89.70
36450;DHT22;22475;51.390;7.180;2023-02-01T07:45:53;10.40;89.80
36450;DHT22;22475;51.390;7.180;2023-02-01T07:48:21;10.40;89.90
36450;DHT22;22475;51.390;7.180;2023-02-01T07:50:47;10.40;89.90
36450;DHT22;22475;51.390;7.180;2023-02-01T07:53:15;10.40;89.90
36450;DHT22;22475;51.390;7.180;2023-02-01T07:55:42;10.40;89.80
36450;DHT22;22475;51.390;7.180;2023-02-01T07:58:09;10.40;89.70
36450;DHT22;22475;51.390;7.180;2023-02-01T08:00:36;10.40;89.60
36450;DHT22;22475;51.390;7.180;2023-02-01T08:03:20;10.40;89.60
36450;DHT22;22475;51.390;7.180;2023-02-01T08:05:46;10.40;89.60
36450;DHT22;22475;51.390;7.180;2023-02-01T08:08:13;10.40;89.60
36450;DHT22;22475;51.390;7.180;2023-02-01T08:10:41;10.40;89.70
36450;DHT22;22475;51.390;7.180;2023-02-01T08:13:08;10.40;89.70
36450;DHT22;22475;51.390;7.180;2023-02-01T08:15:35;10.40;89.70
36450;DHT22;22475;51.390;7.180;2023-02-01T08:18:02;10.40;89.70
36450;DHT22;22475;51.390;7.180;2023-02-01T08:20:29;10.40;89.60
36450;DHT22;22475;51.390;7.180;2023-02-01T08:22:56;10.40;89.50
36450;DHT22;22475;51.390;7.180;2023-02-01T08:25:23;10.40;89.50
36450;DHT22;22475;51.390;7.180;2023-02-01T08:27:51;10.40;89.60
36450;DHT22;22475;51.390;7.180;2023-02-01T08:30:20;10.40;89.60
36450;DHT22;22475;51.390;7.180;2023-02-01T08:32:47;10.40;89.50
36450;DHT22;22475;51.390;7.180;2023-02-01T08:35:14;10.40;89.50
36450;DHT22;22475;51.390;7.180;2023-02-01T08:37:40;10.40;89.50
36450;DHT22;22475;51.390;7.180;2023-02-01T08:40:08;10.40;89.50
36450;DHT22;22475;51.390;7.180;2023-02-01T08:42:35;10.40;89.50
36450;DHT22;22475;51.390;7.180;2023-02-01T08:45:20;10.40;89.50
36450;DHT22;22475;51.390;7.180;2023-02-01T08:47:49;10.40;89.50
36450;DHT22;22475;51.390;7.180;2023-02-01T08:50:16;10.40;89.50
36450;DHT22;22475;51.390;7.180;2023-02-01T08:52:43;10.40;89.50
36450;DHT22;22475;51.390;7.180;2023-02-01T08:55:10;10.40;89.50
36450;DHT22;22475;51.390;7.180;2023-02-01T08:57:37;10.40;89.50
36450;DHT22;22475;51.390;7.180;2023-02-01T09:00:06;10.40;89.50
36450;DHT22;22475;51.390;7.180;2023-02-01T09:02:35;10.40;89.50
36450;DHT22;22475;51.390;7.180;2023-02-01T09:05:02;10.40;89.50
36450;DHT22;22475;51.390;7.180;2023-02-01T09:07:29;10.40;89.50
36450;DHT22;22475;51.390;7.180;2023-02-01T09:09:56;10.40;89.50
36450;DHT22;22475;51.390;7.180;2023-02-01T09:12:26;10.40;89.60
36450;DHT22;22475;51.390;7.180;2023-02-01T09:14:53;10.40;89.60
36450;DHT22;22475;51.390;7.180;2023-02-01T09:17:20;10.50;89.70
36450;DHT22;22475;51.390;7.180;2023-02-01T09:19:48;10.40;89.60
36450;DHT22;22475;51.390;7.180;2023-02-01T09:22:15;10.50;89.60
36450;DHT22;22475;51.390;7.180;2023-02-01T09:24:42;10.50;89.60
36450;DHT22;22475;51.390;7.180;2023-02-01T09:27:08;10.50;89.60
36450;DHT22;22475;51.390;7.180;2023-02-01T09:29:35;10.50;89.50
36450;DHT22;22475;51.390;7.180;2023-02-01T09:32:02;10.50;89.50
36450;DHT22;22475;51.390;7.180;2023-02-01T09:34:29;10.50;89.50
36450;DHT22;22475;51.390;7.180;2023-02-01T09:36:57;10.50;89.60
36450;DHT22;22475;51.390;7.180;2023-02-01T09:39:24;10.50;89.60
36450;DHT22;22475;51.390;7.180;2023-02-01T09:42:05;10.50;89.60
36450;DHT22;22475;51.390;7.180;2023-02-01T09:44:47;10.50;89.60
36450;DHT22;22475;51.390;7.180;2023-02-01T09:47:17;10.50;89.60
36450;DHT22;22475;51.390;7.180;2023-02-01T09:49:49;10.50;89.60
36450;DHT22;22475;51.390;7.180;2023-02-01T09:52:27;10.50;89.50
36450;DHT22;22475;51.390;7.180;2023-02-01T09:54:55;10.50;89.50
36450;DHT22;22475;51.390;7.180;2023-02-01T09:57:31;10.50;89.50
36450;DHT22;22475;51.390;7.180;2023-02-01T10:00:07;10.50;89.50
36450;DHT22;22475;51.390;7.180;2023-02-01T10:02:42;10.50;89.50
36450;DHT22;22475;51.390;7.180;2023-02-01T10:05:13;10.50;89.50
36450;DHT22;22475;51.390;7.180;2023-02-01T10:07:51;10.50;89.40
36450;DHT22;22475;51.390;7.180;2023-02-01T10:10:26;10.50;89.40
36450;DHT22;22475;51.390;7.180;2023-02-01T10:13:23;10.50;89.40
36450;DHT22;22475;51.390;7.180;2023-02-01T10:16:02;10.50;89.30
36450;DHT22;22475;51.390;7.180;2023-02-01T10:18:41;10.50;89.20
36450;DHT22;22475;51.390;7.180;2023-02-01T10:21:19;10.50;89.30
36450;DHT22;22475;51.390;7.180;2023-02-01T10:24:13;10.50;89.30
36450;DHT22;22475;51.390;7.180;2023-02-01T10:26:45;10.50;89.30
36450;DHT22;22475;51.390;7.180;2023-02-01T10:29:17;10.50;89.30
36450;DHT22;22475;51.390;7.180;2023-02-01T10:31:45;10.50;89.30
36450;DHT22;22475;51.390;7.180;2023-02-01T10:34:18;10.50;89.30
36450;DHT22;22475;51.390;7.180;2023-02-01T10:36:52;10.50;89.30
36450;DHT22;22475;51.390;7.180;2023-02-01T10:39:21;10.50;89.30
36450;DHT22;22475;51.390;7.180;2023-02-01T10:41:48;10.50;89.30
36450;DHT22;22475;51.390;7.180;2023-02-01T10:44:17;10.50;89.30
36450;DHT22;22475;51.390;7.180;2023-02-01T10:46:45;10.60;89.40
36450;DHT22;22475;51.390;7.180;2023-02-01T10:49:16;10.50;89.30
36450;DHT22;22475;51.390;7.180;2023-02-01T10:51:46;10.50;89.20
36450;DHT22;22475;51.390;7.180;2023-02-01T10:54:17;10.50;89.20
36450;DHT22;22475;51.390;7.180;2023-02-01T10:56:48;10.60;89.30
36450;DHT22;22475;51.390;7.180;2023-02-01T10:59:16;10.60;89.20
36450;DHT22;22475;51.390;7.180;2023-02-01T11:01:45;10.60;89.20
36450;DHT22;22475;51.390;7.180;2023-02-01T11:04:13;10.60;89.30
36450;DHT22;22475;51.390;7.180;2023-02-01T11:06:42;10.60;89.30
36450;DHT22;22475;51.390;7.180;2023-02-01T11:09:16;10.60;89.40
36450;DHT22;22475;51.390;7.180;2023-02-01T11:12:00;10.60;90.00
36450;DHT22;22475;51.390;7.180;2023-02-01T11:14:34;10.60;89.20
36450;DHT22;22475;51.390;7.180;2023-02-01T11:17:03;10.60;89.20
36450;DHT22;22475;51.390;7.180;2023-02-01T11:19:37;10.60;89.30
36450;DHT22;22475;51.390;7.180;2023-02-01T11:22:04;10.60;89.30
36450;DHT22;22475;51.390;7.180;2023-02-01T11:24:33;10.60;89.30
36450;DHT22;22475;51.390;7.180;2023-02-01T11:27:12;10.60;89.40
36450;DHT22;22475;51.390;7.180;2023-02-01T11:29:43;10.60;89.40
36450;DHT22;22475;51.390;7.180;2023-02-01T11:32:13;10.60;89.40
36450;DHT22;22475;51.390;7.180;2023-02-01T11:34:42;10.60;89.40
36450;DHT22;22475;51.390;7.180;2023-02-01T11:37:24;10.60;89.30
36450;DHT22;22475;51.390;7.180;2023-02-01T11:39:56;10.60;89.30
36450;DHT22;22475;51.390;7.180;2023-02-01T11:42:26;10.70;89.30
36450;DHT22;22475;51.390;7.180;2023-02-01T11:45:18;10.70;89.30
36450;DHT22;22475;51.390;7.180;2023-02-01T11:47:45;10.60;89.30
36450;DHT22;22475;51.390;7.180;2023-02-01T11:50:16;10.70;89.30
36450;DHT22;22475;51.390;7.180;2023-02-01T11:52:55;10.60;89.10
36450;DHT22;22475;51.390;7.180;2023-02-01T11:55:36;10.70;89.10
36450;DHT22;22475;51.390;7.180;2023-02-01T11:58:33;10.60;89.00
36450;DHT22;22475;51.390;7.180;2023-02-01T12:01:18;10.70;88.90
36450;DHT22;22475;51.390;7.180;2023-02-01T12:04:14;10.60;88.90
36450;DHT22;22475;51.390;7.180;2023-02-01T12:06:49;10.60;88.90
36450;DHT22;22475;51.390;7.180;2023-02-01T12:09:37;10.60;88.90
36450;DHT22;22475;51.390;7.180;2023-02-01T12:12:16;10.60;89.10
36450;DHT22;22475;51.390;7.180;2023-02-01T12:14:56;10.60;89.30
36450;DHT22;22475;51.390;7.180;2023-02-01T12:17:49;10.60;89.40
36450;DHT22;22475;51.390;7.180;2023-02-01T12:20:29;10.60;89.50
36450;DHT22;22475;51.390;7.180;2023-02-01T12:23:09;10.60;89.40
36450;DHT22;22475;51.390;7.180;2023-02-01T12:25:51;10.60;89.40
36450;DHT22;22475;51.390;7.180;2023-02-01T12:28:41;10.60;89.50
36450;DHT22;22475;51.390;7.180;2023-02-01T12:31:24;10.60;89.50
36450;DHT22;22475;51.390;7.180;2023-02-01T12:34:07;10.60;89.50
36450;DHT22;22475;51.390;7.180;2023-02-01T12:36:40;10.60;89.60
36450;DHT22;22475;51.390;7.180;2023-02-01T12:39:19;10.60;89.60
36450;DHT22;22475;51.390;7.180;2023-02-01T12:42:01;10.60;89.60
36450;DHT22;22475;51.390;7.180;2023-02-01T12:44:35;10.60;89.60
36450;DHT22;22475;51.390;7.180;2023-02-01T12:47:11;10.60;89.60
36450;DHT22;22475;51.390;7.180;2023-02-01T12:49:46;10.70;89.70
36450;DHT22;22475;51.390;7.180;2023-02-01T12:52:16;10.60;89.70
36450;DHT22;22475;51.390;7.180;2023-02-01T12:54:48;10.70;89.80
36450;DHT22;22475;51.390;7.180;2023-02-01T12:57:19;10.60;89.60
36450;DHT22;22475;51.390;7.180;2023-02-01T12:59:52;10.70;89.60
36450;DHT22;22475;51.390;7.180;2023-02-01T13:02:27;10.70;89.50
36450;DHT22;22475;51.390;7.180;2023-02-01T13:04:59;10.70;89.50
36450;DHT22;22475;51.390;7.180;2023-02-01T13:07:31;10.60;89.40
36450;DHT22;22475;51.390;7.180;2023-02-01T13:10:05;10.70;89.50
36450;DHT22;22475;51.390;7.180;2023-02-01T13:12:43;10.70;89.40
36450;DHT22;22475;51.390;7.180;2023-02-01T13:15:14;10.70;89.40
36450;DHT22;22475;51.390;7.180;2023-02-01T13:17:44;10.70;89.40
36450;DHT22;22475;51.390;7.180;2023-02-01T13:20:18;10.70;89.50
36450;DHT22;22475;51.390;7.180;2023-02-01T13:22:47;10.70;90.10
36450;DHT22;22475;51.390;7.180;2023-02-01T13:25:25;10.70;89.50
36450;DHT22;22475;51.390;7.180;2023-02-01T13:27:53;10.70;89.60
36450;DHT22;22475;51.390;7.180;2023-02-01T13:30:24;10.70;89.70
36450;DHT22;22475;51.390;7.180;2023-02-01T13:33:20;10.70;89.70
36450;DHT22;22475;51.390;7.180;2023-02-01T13:42:00;10.70;89.90
36450;DHT22;22475;51.390;7.180;2023-02-01T13:44:28;10.60;89.80
36450;DHT22;22475;51.390;7.180;2023-02-01T13:47:01;10.70;89.90
36450;DHT22;22475;51.390;7.180;2023-02-01T13:49:31;10.70;89.80
36450;DHT22;22475;51.390;7.180;2023-02-01T13:51:58;10.60;89.80
36450;DHT22;22475;51.390;7.180;2023-02-01T13:54:29;10.60;89.80
36450;DHT22;22475;51.390;7.180;2023-02-01T13:56:56;10.70;90.00
36450;DHT22;22475;51.390;7.180;2023-02-01T13:59:50;10.70;90.00
36450;DHT22;22475;51.390;7.180;2023-02-01T14:02:49;10.60;90.00
36450;DHT22;22475;51.390;7.180;2023-02-01T14:08:38;10.60;90.00
36450;DHT22;22475;51.390;7.180;2023-02-01T14:11:05;10.60;90.00
36450;DHT22;22475;51.390;7.180;2023-02-01T14:13:33;10.70;90.00
36450;DHT22;22475;51.390;7.180;2023-02-01T14:16:16;10.70;90.00
36450;DHT22;22475;51.390;7.180;2023-02-01T14:18:57;10.70;90.00
36450;DHT22;22475;51.390;7.180;2023-02-01T14:21:28;10.70;90.10
36450;DHT22;22475;51.390;7.180;2023-02-01T14:23:59;10.70;90.00
36450;DHT22;22475;51.390;7.180;2023-02-01T14:26:41;10.60;89.90
36450;DHT22;22475;51.390;7.180;2023-02-01T14:29:26;10.70;90.00
36450;DHT22;22475;51.390;7.180;2023-02-01T14:32:03;10.70;89.90
36450;DHT22;22475;51.390;7.180;2023-02-01T14:34:37;10.70;89.90
36450;DHT22;22475;51.390;7.180;2023-02-01T14:37:10;10.70;89.90
36450;DHT22;22475;51.390;7.180;2023-02-01T14:39:52;10.70;89.90
36450;DHT22;22475;51.390;7.180;2023-02-01T14:42:24;10.70;89.90
36450;DHT22;22475;51.390;7.180;2023-02-01T14:44:52;10.70;89.90
36450;DHT22;22475;51.390;7.180;2023-02-01T14:47:34;10.70;89.90
36450;DHT22;22475;51.390;7.180;2023-02-01T14:50:22;10.70;89.90
36450;DHT22;22475;51.390;7.180;2023-02-01T14:53:01;10.70;89.90
36450;DHT22;22475;51.390;7.180;2023-02-01T14:55:35;10.70;89.90
36450;DHT22;22475;51.390;7.180;2023-02-01T14:58:20;10.70;89.90
36450;DHT22;22475;51.390;7.180;2023-02-01T15:00:52;10.70;89.80
36450;DHT22;22475;51.390;7.180;2023-02-01T15:03:35;10.70;89.80
36450;DHT22;22475;51.390;7.180;2023-02-01T15:06:03;10.70;89.70
36450;DHT22;22475;51.390;7.180;2023-02-01T15:08:33;10.70;89.70
36450;DHT22;22475;51.390;7.180;2023-02-01T15:11:15;10.70;89.70
36450;DHT22;22475;51.390;7.180;2023-02-01T15:13:48;10.70;89.70
36450;DHT22;22475;51.390;7.180;2023-02-01T15:16:15;10.70;89.50
36450;DHT22;22475;51.390;7.180;2023-02-01T15:18:42;10.70;89.50
36450;DHT22;22475;51.390;7.180;2023-02-01T15:21:16;10.70;89.60
36450;DHT22;22475;51.390;7.180;2023-02-01T15:23:43;10.70;89.70
36450;DHT22;22475;51.390;7.180;2023-02-01T15:26:24;10.70;89.80
36450;DHT22;22475;51.390;7.180;2023-02-01T15:28:51;10.70;89.80
36450;DHT22;22475;51.390;7.180;2023-02-01T15:31:32;10.70;89.70
36450;DHT22;22475;51.390;7.180;2023-02-01T15:33:59;10.80;89.80
36450;DHT22;22475;51.390;7.180;2023-02-01T15:36:26;10.70;89.70
36450;DHT22;22475;51.390;7.180;2023-02-01T15:39:13;10.80;89.70
36450;DHT22;22475;51.390;7.180;2023-02-01T15:41:46;10.80;89.70
36450;DHT22;22475;51.390;7.180;2023-02-01T15:44:18;10.70;89.60
36450;DHT22;22475;51.390;7.180;2023-02-01T15:46:47;10.80;89.70
36450;DHT22;22475;51.390;7.180;2023-02-01T15:49:20;10.80;89.70
36450;DHT22;22475;51.390;7.180;2023-02-01T15:51:50;10.80;89.60
36450;DHT22;22475;51.390;7.180;2023-02-01T15:54:19;10.80;89.60
36450;DHT22;22475;51.390;7.180;2023-02-01T15:56:52;10.80;89.60
36450;DHT22;22475;51.390;7.180;2023-02-01T15:59:22;10.80;89.50
36450;DHT22;22475;51.390;7.180;2023-02-01T16:01:49;10.80;89.50
36450;DHT22;22475;51.390;7.180;2023-02-01T16:04:20;10.80;89.50
36450;DHT22;22475;51.390;7.180;2023-02-01T16:06:49;10.80;89.50
36450;DHT22;22475;51.390;7.180;2023-02-01T16:09:18;10.80;89.40
36450;DHT22;22475;51.390;7.180;2023-02-01T16:11:54;10.80;89.40